Private Wetterstation Sandau
Wetterdaten: Montag, 04.03.2013
Datum Zeit Temp. A. Feuchte A. Luftdruck Regen Wind Richtung Richtung Taupunkt Windchill
04.03.2013 00:01 -0,7 C 84 % 1023,9 hPa 0,0 l/m 0,0 km/h (0 Bft) W-SW 247 -3,1 C -0,7 C
04.03.2013 00:06 -0,8 C 85 % 1024,0 hPa 0,0 l/m 1,1 km/h (1 Bft) W-SW 247 -3,0 C -0,8 C
04.03.2013 00:11 -0,8 C 85 % 1023,9 hPa 0,0 l/m 0,0 km/h (0 Bft) W-SW 247 -3,0 C -0,8 C
04.03.2013 00:16 -0,9 C 85 % 1024,1 hPa 0,0 l/m 0,0 km/h (0 Bft) W-SW 247 -3,1 C -0,9 C
04.03.2013 00:21 -1,1 C 85 % 1024,2 hPa 0,0 l/m 0,0 km/h (0 Bft) W-SW 247 -3,3 C -1,1 C
04.03.2013 00:26 -1,1 C 85 % 1023,9 hPa 0,0 l/m 1,1 km/h (1 Bft) W-SW 247 -3,3 C -1,1 C
04.03.2013 00:31 -1,1 C 85 % 1024,0 hPa 0,0 l/m 0,0 km/h (0 Bft) W-SW 247 -3,3 C -1,1 C
04.03.2013 00:36 -1,2 C 85 % 1024,1 hPa 0,0 l/m 0,0 km/h (0 Bft) W-SW 247 -3,4 C -1,2 C
04.03.2013 00:41 -1,2 C 85 % 1024,2 hPa 0,0 l/m 0,0 km/h (0 Bft) W-SW 247 -3,4 C -1,2 C
04.03.2013 00:46 -1,3 C 85 % 1024,2 hPa 0,0 l/m 0,0 km/h (0 Bft) W-SW 247 -3,5 C -1,3 C
04.03.2013 00:51 -1,4 C 86 % 1024,2 hPa 0,0 l/m 0,0 km/h (0 Bft) W-SW 247 -3,4 C -1,4 C
04.03.2013 00:56 -1,5 C 86 % 1024,2 hPa 0,0 l/m 0,0 km/h (0 Bft) W-SW 247 -3,5 C -1,5 C
04.03.2013 01:01 -1,5 C 86 % 1024,3 hPa 0,0 l/m 0,0 km/h (0 Bft) W-SW 247 -3,5 C -1,5 C
04.03.2013 01:06 -1,6 C 86 % 1024,1 hPa 0,0 l/m 0,0 km/h (0 Bft) W-SW 247 -3,6 C -1,6 C
04.03.2013 01:11 -1,6 C 86 % 1024,3 hPa 0,0 l/m 0,0 km/h (0 Bft) W-SW 247 -3,6 C -1,6 C
04.03.2013 01:16 -1,6 C 86 % 1024,4 hPa 0,0 l/m 0,0 km/h (0 Bft) W-SW 247 -3,6 C -1,6 C
04.03.2013 01:21 -1,6 C 86 % 1024,3 hPa 0,0 l/m 0,0 km/h (0 Bft) W-SW 247 -3,6 C -1,6 C
04.03.2013 01:26 -1,6 C 86 % 1024,3 hPa 0,0 l/m 0,0 km/h (0 Bft) W-SW 247 -3,6 C -1,6 C
04.03.2013 01:31 -1,7 C 86 % 1024,4 hPa 0,0 l/m 0,0 km/h (0 Bft) W-SW 247 -3,7 C -1,7 C
04.03.2013 01:36 -1,7 C 87 % 1024,4 hPa 0,0 l/m 0,0 km/h (0 Bft) W-SW 247 -3,6 C -1,7 C
04.03.2013 01:41 -1,8 C 87 % 1024,3 hPa 0,0 l/m 0,0 km/h (0 Bft) W-SW 247 -3,7 C -1,8 C
04.03.2013 01:46 -1,8 C 87 % 1024,4 hPa 0,0 l/m 0,0 km/h (0 Bft) W-SW 247 -3,7 C -1,8 C
04.03.2013 01:51 -1,9 C 87 % 1024,4 hPa 0,0 l/m 0,0 km/h (0 Bft) W-SW 247 -3,8 C -1,9 C
04.03.2013 01:56 -1,9 C 87 % 1024,4 hPa 0,0 l/m 0,0 km/h (0 Bft) W-SW 247 -3,8 C -1,9 C
04.03.2013 02:01 -2,1 C 87 % 1024,3 hPa 0,0 l/m 0,0 km/h (0 Bft) W-SW 247 -4,0 C -2,1 C
04.03.2013 02:06 -2,1 C 87 % 1024,3 hPa 0,0 l/m 0,0 km/h (0 Bft) W-SW 247 -4,0 C -2,1 C
04.03.2013 02:11 -2,2 C 87 % 1024,4 hPa 0,0 l/m 0,0 km/h (0 Bft) W-SW 247 -4,1 C -2,2 C
04.03.2013 02:16 -2,2 C 87 % 1024,4 hPa 0,0 l/m 0,0 km/h (0 Bft) W-SW 247 -4,1 C -2,2 C
04.03.2013 02:21 -2,2 C 87 % 1024,4 hPa 0,0 l/m 0,0 km/h (0 Bft) W-SW 247 -4,1 C -2,2 C
04.03.2013 02:26 -2,4 C 87 % 1024,3 hPa 0,0 l/m 0,0 km/h (0 Bft) W-SW 247 -4,3 C -2,4 C
04.03.2013 02:31 -2,5 C 87 % 1024,4 hPa 0,0 l/m 0,0 km/h (0 Bft) W-SW 247 -4,4 C -2,5 C
04.03.2013 02:36 -2,6 C 87 % 1024,2 hPa 0,0 l/m 0,0 km/h (0 Bft) W-SW 247 -4,5 C -2,6 C
04.03.2013 02:41 -2,7 C 87 % 1024,2 hPa 0,0 l/m 0,0 km/h (0 Bft) W-SW 247 -4,6 C -2,7 C
04.03.2013 02:46 -2,7 C 87 % 1024,3 hPa 0,0 l/m 0,0 km/h (0 Bft) W-SW 247 -4,6 C -2,7 C
04.03.2013 02:51 -2,7 C 87 % 1024,3 hPa 0,0 l/m 0,0 km/h (0 Bft) W-SW 247 -4,6 C -2,7 C
04.03.2013 02:56 -2,8 C 87 % 1024,3 hPa 0,0 l/m 0,0 km/h (0 Bft) W-SW 247 -4,7 C -2,8 C
04.03.2013 03:01 -2,8 C 87 % 1024,1 hPa 0,0 l/m 0,0 km/h (0 Bft) W-SW 247 -4,7 C -2,8 C
04.03.2013 03:06 -2,8 C 87 % 1024,3 hPa 0,0 l/m 0,0 km/h (0 Bft) W-SW 247 -4,7 C -2,8 C
04.03.2013 03:11 -2,7 C 87 % 1024,3 hPa 0,0 l/m 0,0 km/h (0 Bft) W-SW 247 -4,6 C -2,7 C
04.03.2013 03:16 -2,8 C 87 % 1024,4 hPa 0,0 l/m 0,0 km/h (0 Bft) W-SW 247 -4,7 C -2,8 C
04.03.2013 03:21 -2,8 C 87 % 1024,4 hPa 0,0 l/m 0,0 km/h (0 Bft) W-SW 247 -4,7 C -2,8 C
04.03.2013 03:26 -2,9 C 87 % 1024,1 hPa 0,0 l/m 0,0 km/h (0 Bft) W-SW 247 -4,8 C -2,9 C
04.03.2013 03:31 -3,0 C 87 % 1024,2 hPa 0,0 l/m 0,0 km/h (0 Bft) W-SW 247 -4,9 C -3,0 C
04.03.2013 03:36 -3,1 C 87 % 1024,2 hPa 0,0 l/m 0,0 km/h (0 Bft) W-SW 247 -4,9 C -3,1 C
04.03.2013 03:41 -3,0 C 88 % 1024,3 hPa 0,0 l/m 0,0 km/h (0 Bft) W-SW 247 -4,7 C -3,0 C
04.03.2013 03:46 -3,0 C 88 % 1024,3 hPa 0,0 l/m 0,0 km/h (0 Bft) W-SW 247 -4,7 C -3,0 C
04.03.2013 03:51 -3,1 C 88 % 1024,2 hPa 0,0 l/m 0,0 km/h (0 Bft) W-SW 247 -4,8 C -3,1 C
04.03.2013 03:56 -3,1 C 88 % 1024,1 hPa 0,0 l/m 0,0 km/h (0 Bft) W-SW 247 -4,8 C -3,1 C
04.03.2013 04:01 -2,9 C 88 % 1024,2 hPa 0,0 l/m 0,0 km/h (0 Bft) W-SW 247 -4,6 C -2,9 C
04.03.2013 04:06 -2,9 C 88 % 1024,2 hPa 0,0 l/m 0,0 km/h (0 Bft) W-SW 247 -4,6 C -2,9 C
04.03.2013 04:11 -2,8 C 88 % 1024,2 hPa 0,0 l/m 0,0 km/h (0 Bft) W-SW 247 -4,5 C -2,8 C
04.03.2013 04:16 -2,9 C 88 % 1024,1 hPa 0,0 l/m 0,0 km/h (0 Bft) W-SW 247 -4,6 C -2,9 C
04.03.2013 04:21 -2,9 C 88 % 1024,0 hPa 0,0 l/m 0,0 km/h (0 Bft) W-SW 247 -4,6 C -2,9 C
04.03.2013 04:26 -2,8 C 88 % 1024,2 hPa 0,0 l/m 0,0 km/h (0 Bft) W-SW 247 -4,5 C -2,8 C
04.03.2013 04:31 -2,7 C 88 % 1024,3 hPa 0,0 l/m 0,0 km/h (0 Bft) W-SW 247 -4,4 C -2,7 C
04.03.2013 04:36 -2,7 C 88 % 1024,4 hPa 0,0 l/m 1,4 km/h (1 Bft) W-SW 247 -4,4 C -2,7 C
04.03.2013 04:41 -2,5 C 89 % 1024,4 hPa 0,0 l/m 0,0 km/h (0 Bft) W-SW 247 -4,1 C -2,5 C
04.03.2013 04:46 -2,2 C 89 % 1024,4 hPa 0,0 l/m 0,0 km/h (0 Bft) W-SW 247 -3,8 C -2,2 C
04.03.2013 04:51 -2,1 C 89 % 1024,4 hPa 0,0 l/m 0,0 km/h (0 Bft) W-SW 247 -3,7 C -2,1 C
04.03.2013 04:56 -1,9 C 89 % 1024,4 hPa 0,0 l/m 0,0 km/h (0 Bft) W-SW 247 -3,5 C -1,9 C
04.03.2013 05:01 -1,7 C 89 % 1024,5 hPa 0,0 l/m 0,0 km/h (0 Bft) W-SW 247 -3,3 C -1,7 C
04.03.2013 05:06 -1,6 C 89 % 1024,5 hPa 0,0 l/m 2,2 km/h (1 Bft) W-SW 247 -3,2 C -1,6 C
04.03.2013 05:11 -1,5 C 89 % 1024,4 hPa 0,0 l/m 0,0 km/h (0 Bft) W 270 -3,1 C -1,5 C
04.03.2013 05:16 -1,4 C 89 % 1024,3 hPa 0,0 l/m 0,0 km/h (0 Bft) W-SW 247 -3,0 C -1,4 C
04.03.2013 05:21 -1,3 C 89 % 1024,3 hPa 0,0 l/m 0,0 km/h (0 Bft) SW 225 -2,9 C -1,3 C
04.03.2013 05:26 -1,2 C 89 % 1024,1 hPa 0,0 l/m 4,0 km/h (1 Bft) SW 225 -2,8 C -1,2 C
04.03.2013 05:31 -1,2 C 89 % 1024,0 hPa 0,0 l/m 3,2 km/h (1 Bft) S-SW 202 -2,8 C -1,2 C
04.03.2013 05:36 -1,2 C 89 % 1024,2 hPa 0,0 l/m 2,9 km/h (1 Bft) SW 225 -2,8 C -1,2 C
04.03.2013 05:41 -1,2 C 89 % 1024,1 hPa 0,0 l/m 0,0 km/h (0 Bft) SW 225 -2,8 C -1,2 C
04.03.2013 05:46 -1,2 C 89 % 1024,1 hPa 0,0 l/m 3,6 km/h (1 Bft) W-SW 247 -2,8 C -1,2 C
04.03.2013 05:51 -1,1 C 90 % 1024,2 hPa 0,0 l/m 1,4 km/h (1 Bft) S 180 -2,5 C -1,1 C
04.03.2013 05:56 -1,1 C 90 % 1024,1 hPa 0,0 l/m 2,2 km/h (1 Bft) SW 225 -2,5 C -1,1 C
04.03.2013 06:01 -1,1 C 90 % 1024,1 hPa 0,0 l/m 1,4 km/h (1 Bft) S-SW 202 -2,5 C -1,1 C
04.03.2013 06:06 -1,1 C 90 % 1024,0 hPa 0,0 l/m 0,0 km/h (0 Bft) S-SW 202 -2,5 C -1,1 C
04.03.2013 06:11 -1,1 C 90 % 1024,1 hPa 0,0 l/m 1,8 km/h (1 Bft) S-SW 202 -2,5 C -1,1 C
04.03.2013 06:16 -1,2 C 90 % 1024,2 hPa 0,0 l/m 0,0 km/h (0 Bft) S-SW 202 -2,6 C -1,2 C
04.03.2013 06:21 -1,2 C 90 % 1024,2 hPa 0,0 l/m 0,0 km/h (0 Bft) S-SO 157 -2,6 C -1,2 C
04.03.2013 06:26 -1,1 C 90 % 1024,1 hPa 0,0 l/m 0,0 km/h (0 Bft) S-SO 157 -2,5 C -1,1 C
04.03.2013 06:31 -1,1 C 90 % 1024,1 hPa 0,0 l/m 0,0 km/h (0 Bft) S-SO 157 -2,5 C -1,1 C
04.03.2013 06:36 -1,1 C 90 % 1024,2 hPa 0,0 l/m 0,0 km/h (0 Bft) S-SW 202 -2,5 C -1,1 C
04.03.2013 06:41 -1,1 C 90 % 1024,1 hPa 0,0 l/m 2,2 km/h (1 Bft) S 180 -2,5 C -1,1 C
04.03.2013 06:46 -1,1 C 90 % 1024,2 hPa 0,0 l/m 0,0 km/h (0 Bft) S 180 -2,5 C -1,1 C
04.03.2013 06:51 -1,1 C 90 % 1024,4 hPa 0,0 l/m 0,0 km/h (0 Bft) S 180 -2,5 C -1,1 C
04.03.2013 06:56 -1,1 C 90 % 1024,4 hPa 0,0 l/m 0,0 km/h (0 Bft) S 180 -2,5 C -1,1 C
04.03.2013 07:01 -1,1 C 90 % 1024,4 hPa 0,0 l/m 0,0 km/h (0 Bft) S 180 -2,5 C -1,1 C
04.03.2013 07:06 -1,1 C 90 % 1024,1 hPa 0,0 l/m 0,0 km/h (0 Bft) S 180 -2,5 C -1,1 C
04.03.2013 07:11 -1,1 C 90 % 1024,3 hPa 0,0 l/m 0,0 km/h (0 Bft) S 180 -2,5 C -1,1 C
04.03.2013 07:16 -1,1 C 90 % 1024,4 hPa 0,0 l/m 0,0 km/h (0 Bft) S 180 -2,5 C -1,1 C
04.03.2013 07:21 -1,1 C 90 % 1024,4 hPa 0,0 l/m 1,1 km/h (1 Bft) S 180 -2,5 C -1,1 C
04.03.2013 07:26 -1,1 C 90 % 1024,3 hPa 0,0 l/m 0,0 km/h (0 Bft) S 180 -2,5 C -1,1 C
04.03.2013 07:31 -1,1 C 90 % 1024,4 hPa 0,0 l/m 0,0 km/h (0 Bft) S 180 -2,5 C -1,1 C
04.03.2013 07:36 -1,1 C 90 % 1024,5 hPa 0,0 l/m 0,0 km/h (0 Bft) S 180 -2,5 C -1,1 C
04.03.2013 07:41 -1,1 C 90 % 1024,5 hPa 0,0 l/m 0,0 km/h (0 Bft) S 180 -2,5 C -1,1 C
04.03.2013 07:46 -1,1 C 90 % 1024,6 hPa 0,0 l/m 0,0 km/h (0 Bft) S 180 -2,5 C -1,1 C
04.03.2013 07:51 -1,1 C 90 % 1024,4 hPa 0,0 l/m 0,0 km/h (0 Bft) S 180 -2,5 C -1,1 C
04.03.2013 07:56 -1,0 C 90 % 1024,4 hPa 0,0 l/m 1,4 km/h (1 Bft) S 180 -2,4 C -1,0 C
04.03.2013 08:01 -0,9 C 90 % 1024,4 hPa 0,0 l/m 0,0 km/h (0 Bft) S-SO 157 -2,3 C -0,9 C
04.03.2013 08:06 -0,8 C 90 % 1024,6 hPa 0,0 l/m 0,0 km/h (0 Bft) S-SO 157 -2,2 C -0,8 C
04.03.2013 08:11 -0,7 C 90 % 1024,5 hPa 0,0 l/m 0,0 km/h (0 Bft) S-SO 157 -2,1 C -0,7 C
04.03.2013 08:16 -0,6 C 90 % 1024,5 hPa 0,0 l/m 0,0 km/h (0 Bft) S-SO 157 -2,0 C -0,6 C
04.03.2013 08:21 -0,5 C 90 % 1024,5 hPa 0,0 l/m 0,0 km/h (0 Bft) S-SO 157 -1,9 C -0,5 C
04.03.2013 08:26 -0,4 C 90 % 1024,8 hPa 0,0 l/m 0,0 km/h (0 Bft) S-SO 157 -1,8 C -0,4 C
04.03.2013 08:31 -0,2 C 90 % 1024,8 hPa 0,0 l/m 2,5 km/h (1 Bft) S-SO 157 -1,6 C -0,2 C
04.03.2013 08:36 -0,1 C 90 % 1024,7 hPa 0,0 l/m 0,0 km/h (0 Bft) S-SO 157 -1,5 C -0,1 C
04.03.2013 08:41 0,1 C 90 % 1024,7 hPa 0,0 l/m 0,0 km/h (0 Bft) S-SO 157 -1,3 C 0,1 C
04.03.2013 08:46 0,2 C 90 % 1024,7 hPa 0,0 l/m 0,0 km/h (0 Bft) S-SO 157 -1,2 C 0,2 C
04.03.2013 08:51 0,3 C 90 % 1024,7 hPa 0,0 l/m 1,1 km/h (1 Bft) S 180 -1,1 C 0,3 C
04.03.2013 08:56 0,5 C 90 % 1024,9 hPa 0,0 l/m 0,0 km/h (0 Bft) S 180 -0,9 C 0,5 C
04.03.2013 09:01 0,6 C 90 % 1024,8 hPa 0,0 l/m 0,0 km/h (0 Bft) S 180 -0,8 C 0,6 C
04.03.2013 09:06 0,8 C 90 % 1024,8 hPa 0,0 l/m 0,0 km/h (0 Bft) S 180 -0,6 C 0,8 C
04.03.2013 09:11 0,9 C 89 % 1024,9 hPa 0,0 l/m 0,0 km/h (0 Bft) S-SO 157 -0,7 C 0,9 C
04.03.2013 09:16 1,1 C 89 % 1024,8 hPa 0,0 l/m 1,8 km/h (1 Bft) S-SO 157 -0,5 C 1,1 C
04.03.2013 09:21 1,3 C 90 % 1024,7 hPa 0,0 l/m 2,9 km/h (1 Bft) SO 135 -0,2 C 1,3 C
04.03.2013 09:26 1,3 C 89 % 1024,7 hPa 0,0 l/m 4,0 km/h (1 Bft) SO 135 -0,3 C 1,3 C
04.03.2013 09:31 1,5 C 89 % 1024,6 hPa 0,0 l/m 2,5 km/h (1 Bft) S-SO 157 -0,1 C 1,5 C
04.03.2013 09:36 1,6 C 88 % 1024,8 hPa 0,0 l/m 0,0 km/h (0 Bft) S 180 -0,2 C 1,6 C
04.03.2013 09:41 1,9 C 88 % 1024,6 hPa 0,0 l/m 0,0 km/h (0 Bft) S-SO 157 0,1 C 1,9 C
04.03.2013 09:46 2,1 C 88 % 1024,6 hPa 0,0 l/m 2,5 km/h (1 Bft) SO 135 0,3 C 2,1 C
04.03.2013 09:51 2,3 C 87 % 1024,7 hPa 0,0 l/m 1,8 km/h (1 Bft) O-SO 112 0,4 C 2,3 C
04.03.2013 09:56 2,4 C 87 % 1024,8 hPa 0,0 l/m 1,1 km/h (1 Bft) S-SO 157 0,5 C 2,4 C
04.03.2013 10:01 2,6 C 86 % 1024,7 hPa 0,0 l/m 1,4 km/h (1 Bft) S-SO 157 0,5 C 2,6 C
04.03.2013 10:06 2,9 C 86 % 1024,6 hPa 0,0 l/m 1,8 km/h (1 Bft) S-SO 157 0,8 C 2,9 C
04.03.2013 10:11 2,9 C 86 % 1024,6 hPa 0,0 l/m 5,8 km/h (2 Bft) S-SW 202 0,8 C 1,4 C
04.03.2013 10:16 3,1 C 86 % 1024,6 hPa 0,0 l/m 0,0 km/h (0 Bft) S 180 1,0 C 3,1 C
04.03.2013 10:21 3,3 C 85 % 1024,5 hPa 0,0 l/m 4,7 km/h (1 Bft) S-SW 202 1,0 C 2,3 C
04.03.2013 10:26 3,5 C 85 % 1024,5 hPa 0,0 l/m 5,8 km/h (2 Bft) S-SW 202 1,2 C 2,1 C
04.03.2013 10:31 3,6 C 84 % 1024,8 hPa 0,0 l/m 5,4 km/h (1 Bft) W-SW 247 1,2 C 2,3 C
04.03.2013 10:36 3,8 C 83 % 1024,6 hPa 0,0 l/m 4,0 km/h (1 Bft) S 180 1,2 C 3,8 C
04.03.2013 10:41 4,0 C 82 % 1024,7 hPa 0,0 l/m 10,1 km/h (2 Bft) S 180 1,2 C 1,4 C
04.03.2013 10:46 4,1 C 82 % 1024,6 hPa 0,0 l/m 5,8 km/h (2 Bft) SW 225 1,3 C 2,8 C
04.03.2013 10:51 4,2 C 81 % 1024,6 hPa 0,0 l/m 6,1 km/h (2 Bft) SW 225 1,2 C 2,8 C
04.03.2013 10:56 4,4 C 80 % 1024,6 hPa 0,0 l/m 3,6 km/h (1 Bft) W-SW 247 1,3 C 4,4 C
04.03.2013 11:01 4,5 C 80 % 1024,6 hPa 0,0 l/m 4,3 km/h (1 Bft) S 180 1,4 C 4,5 C
04.03.2013 11:06 4,7 C 80 % 1024,7 hPa 0,0 l/m 4,3 km/h (1 Bft) W-SW 247 1,6 C 4,7 C
04.03.2013 11:11 4,9 C 80 % 1024,6 hPa 0,0 l/m 4,0 km/h (1 Bft) SW 225 1,7 C 4,9 C
04.03.2013 11:16 5,0 C 79 % 1024,7 hPa 0,0 l/m 4,7 km/h (1 Bft) S-SW 202 1,7 C 4,2 C
04.03.2013 11:21 5,2 C 78 % 1024,5 hPa 0,0 l/m 3,6 km/h (1 Bft) SW 225 1,7 C 5,2 C
04.03.2013 11:26 5,3 C 77 % 1024,6 hPa 0,0 l/m 8,3 km/h (2 Bft) S-SO 157 1,6 C 3,4 C
04.03.2013 11:31 5,4 C 76 % 1024,5 hPa 0,0 l/m 5,8 km/h (2 Bft) S 180 1,5 C 4,2 C
04.03.2013 11:36 5,5 C 75 % 1024,5 hPa 0,0 l/m 8,3 km/h (2 Bft) S-SO 157 1,4 C 3,6 C
04.03.2013 11:41 5,6 C 74 % 1024,6 hPa 0,0 l/m 10,8 km/h (2 Bft) S-SW 202 1,3 C 3,2 C
04.03.2013 11:46 5,6 C 74 % 1024,6 hPa 0,0 l/m 4,0 km/h (1 Bft) S 180 1,3 C 5,6 C
04.03.2013 11:51 5,8 C 73 % 1024,5 hPa 0,0 l/m 6,1 km/h (2 Bft) S-SW 202 1,3 C 4,6 C
04.03.2013 11:56 5,8 C 73 % 1024,7 hPa 0,0 l/m 9,4 km/h (2 Bft) S 180 1,3 C 3,7 C
04.03.2013 12:01 5,9 C 73 % 1024,6 hPa 0,0 l/m 6,1 km/h (2 Bft) S 180 1,4 C 4,7 C
04.03.2013 12:06 6,1 C 72 % 1024,5 hPa 0,0 l/m 16,2 km/h (3 Bft) S-SW 202 1,4 C 2,9 C
04.03.2013 12:11 6,3 C 72 % 1024,4 hPa 0,0 l/m 10,4 km/h (2 Bft) S 180 1,6 C 4,1 C
04.03.2013 12:16 6,3 C 71 % 1024,3 hPa 0,0 l/m 10,1 km/h (2 Bft) W-SW 247 1,4 C 4,2 C
04.03.2013 12:21 6,5 C 71 % 1024,3 hPa 0,0 l/m 5,0 km/h (1 Bft) SW 225 1,6 C 5,8 C
04.03.2013 12:26 6,6 C 70 % 1024,4 hPa 0,0 l/m 8,3 km/h (2 Bft) S-SW 202 1,5 C 4,9 C
04.03.2013 12:31 6,6 C 70 % 1024,3 hPa 0,0 l/m 8,6 km/h (2 Bft) W-SW 247 1,5 C 4,9 C
04.03.2013 12:36 6,7 C 70 % 1024,2 hPa 0,0 l/m 6,8 km/h (2 Bft) S-SW 202 1,6 C 5,4 C
04.03.2013 12:41 6,9 C 69 % 1024,1 hPa 0,0 l/m 9,7 km/h (2 Bft) S-SW 202 1,6 C 5,0 C
04.03.2013 12:46 6,9 C 69 % 1023,9 hPa 0,0 l/m 4,0 km/h (1 Bft) W 270 1,6 C 6,9 C
04.03.2013 12:51 7,1 C 69 % 1023,9 hPa 0,0 l/m 5,8 km/h (2 Bft) W-SW 247 1,8 C 6,2 C
04.03.2013 12:56 7,3 C 68 % 1023,9 hPa 0,0 l/m 2,2 km/h (1 Bft) S 180 1,8 C 7,3 C
04.03.2013 13:01 7,4 C 68 % 1023,9 hPa 0,0 l/m 6,8 km/h (2 Bft) S-SW 202 1,9 C 6,3 C
04.03.2013 13:06 7,6 C 67 % 1023,8 hPa 0,0 l/m 4,7 km/h (1 Bft) W-SW 247 1,9 C 7,1 C
04.03.2013 13:11 7,7 C 67 % 1023,7 hPa 0,0 l/m 6,5 km/h (2 Bft) W-SW 247 2,0 C 6,7 C
04.03.2013 13:16 7,8 C 66 % 1023,5 hPa 0,0 l/m 5,0 km/h (1 Bft) SW 225 1,9 C 7,3 C
04.03.2013 13:21 7,9 C 66 % 1023,4 hPa 0,0 l/m 3,2 km/h (1 Bft) S-SO 157 1,9 C 7,9 C
04.03.2013 13:26 8,2 C 65 % 1023,4 hPa 0,0 l/m 7,9 km/h (2 Bft) S 180 2,0 C 6,9 C
04.03.2013 13:31 8,3 C 64 % 1023,4 hPa 0,0 l/m 8,3 km/h (2 Bft) SW 225 1,9 C 6,9 C
04.03.2013 13:36 8,5 C 64 % 1023,4 hPa 0,0 l/m 7,6 km/h (2 Bft) S-SO 157 2,1 C 7,3 C
04.03.2013 13:41 8,6 C 64 % 1023,3 hPa 0,0 l/m 5,0 km/h (1 Bft) SW 225 2,2 C 8,2 C
04.03.2013 13:46 8,9 C 63 % 1023,3 hPa 0,0 l/m 7,2 km/h (2 Bft) W-SW 247 2,2 C 7,9 C
04.03.2013 13:51 8,9 C 63 % 1023,2 hPa 0,0 l/m 5,8 km/h (2 Bft) SW 225 2,2 C 8,3 C
04.03.2013 13:56 9,0 C 63 % 1023,2 hPa 0,0 l/m 6,1 km/h (2 Bft) S-SW 202 2,3 C 8,3 C
04.03.2013 14:01 9,1 C 62 % 1023,0 hPa 0,0 l/m 4,0 km/h (1 Bft) S-SO 157 2,2 C 9,1 C
04.03.2013 14:06 9,2 C 62 % 1022,9 hPa 0,0 l/m 6,1 km/h (2 Bft) S-SW 202 2,3 C 8,5 C
04.03.2013 14:11 9,3 C 60 % 1022,9 hPa 0,0 l/m 10,1 km/h (2 Bft) SW 225 1,9 C 7,8 C
04.03.2013 14:16 9,3 C 60 % 1022,9 hPa 0,0 l/m 4,7 km/h (1 Bft) S-SW 202 1,9 C 9,1 C
04.03.2013 14:21 9,4 C 61 % 1022,8 hPa 0,0 l/m 2,5 km/h (1 Bft) S-SO 157 2,3 C 9,4 C
04.03.2013 14:26 9,6 C 61 % 1022,8 hPa 0,0 l/m 5,0 km/h (1 Bft) SW 225 2,5 C 9,3 C
04.03.2013 14:31 9,8 C 60 % 1022,7 hPa 0,0 l/m 2,9 km/h (1 Bft) S-SW 202 2,4 C 9,8 C
04.03.2013 14:36 9,8 C 59 % 1022,6 hPa 0,0 l/m 2,5 km/h (1 Bft) W 270 2,2 C 9,8 C
04.03.2013 14:41 9,9 C 59 % 1022,5 hPa 0,0 l/m 3,2 km/h (1 Bft) S-SW 202 2,3 C 9,9 C
04.03.2013 14:46 10,1 C 59 % 1022,4 hPa 0,0 l/m 4,0 km/h (1 Bft) SW 225 2,5 C 10,1 C
04.03.2013 14:51 10,2 C 58 % 1022,4 hPa 0,0 l/m 9,4 km/h (2 Bft) S 180 2,3 C 10,2 C
04.03.2013 14:56 10,1 C 57 % 1022,2 hPa 0,0 l/m 9,4 km/h (2 Bft) S-SW 202 2,0 C 10,1 C
04.03.2013 15:01 10,1 C 57 % 1022,4 hPa 0,0 l/m 11,9 km/h (2 Bft) SW 225 2,0 C 10,1 C
04.03.2013 15:06 10,2 C 56 % 1022,3 hPa 0,0 l/m 8,3 km/h (2 Bft) S 180 1,8 C 10,2 C
04.03.2013 15:11 10,2 C 57 % 1022,2 hPa 0,0 l/m 11,9 km/h (2 Bft) SW 225 2,1 C 10,2 C
04.03.2013 15:16 10,3 C 57 % 1022,2 hPa 0,0 l/m 5,0 km/h (1 Bft) S-SW 202 2,2 C 10,3 C
04.03.2013 15:21 10,4 C 55 % 1022,3 hPa 0,0 l/m 7,6 km/h (2 Bft) S-SW 202 1,8 C 10,4 C
04.03.2013 15:26 10,4 C 55 % 1022,2 hPa 0,0 l/m 5,8 km/h (2 Bft) SW 225 1,8 C 10,4 C
04.03.2013 15:31 10,4 C 55 % 1022,2 hPa 0,0 l/m 8,3 km/h (2 Bft) SW 225 1,8 C 10,4 C
04.03.2013 15:36 10,4 C 55 % 1022,0 hPa 0,0 l/m 11,2 km/h (2 Bft) S 180 1,8 C 10,4 C
04.03.2013 15:41 10,4 C 54 % 1021,9 hPa 0,0 l/m 5,0 km/h (1 Bft) S 180 1,5 C 10,4 C
04.03.2013 15:46 10,4 C 54 % 1021,9 hPa 0,0 l/m 6,5 km/h (2 Bft) S-SO 157 1,5 C 10,4 C
04.03.2013 15:51 10,4 C 54 % 1021,8 hPa 0,0 l/m 4,3 km/h (1 Bft) SW 225 1,5 C 10,4 C
04.03.2013 15:56 10,3 C 54 % 1021,8 hPa 0,0 l/m 3,6 km/h (1 Bft) S-SO 157 1,4 C 10,3 C
04.03.2013 16:01 10,3 C 53 % 1021,8 hPa 0,0 l/m 6,5 km/h (2 Bft) SW 225 1,1 C 10,3 C
04.03.2013 16:06 10,1 C 54 % 1021,7 hPa 0,0 l/m 4,3 km/h (1 Bft) S-SW 202 1,2 C 10,1 C
04.03.2013 16:11 10,0 C 54 % 1021,5 hPa 0,0 l/m 6,5 km/h (2 Bft) S 180 1,1 C 9,3 C
04.03.2013 16:16 9,9 C 55 % 1021,6 hPa 0,0 l/m 8,6 km/h (2 Bft) S-SW 202 1,3 C 8,8 C
04.03.2013 16:21 9,9 C 55 % 1021,6 hPa 0,0 l/m 6,5 km/h (2 Bft) S-SW 202 1,3 C 9,2 C
04.03.2013 16:26 9,8 C 55 % 1021,5 hPa 0,0 l/m 9,7 km/h (2 Bft) S-SW 202 1,2 C 8,4 C
04.03.2013 16:31 9,8 C 55 % 1021,4 hPa 0,0 l/m 7,2 km/h (2 Bft) S 180 1,2 C 8,9 C
04.03.2013 16:36 9,6 C 56 % 1021,4 hPa 0,0 l/m 7,2 km/h (2 Bft) S-SW 202 1,3 C 8,7 C
04.03.2013 16:41 9,5 C 56 % 1021,7 hPa 0,0 l/m 4,0 km/h (1 Bft) SW 225 1,2 C 9,5 C
04.03.2013 16:46 9,3 C 57 % 1021,6 hPa 0,0 l/m 4,7 km/h (1 Bft) S-SW 202 1,2 C 9,1 C
04.03.2013 16:51 9,1 C 58 % 1021,5 hPa 0,0 l/m 8,6 km/h (2 Bft) SW 225 1,3 C 7,8 C
04.03.2013 16:56 8,9 C 58 % 1021,4 hPa 0,0 l/m 3,6 km/h (1 Bft) S-SO 157 1,1 C 8,9 C
04.03.2013 17:01 8,7 C 58 % 1021,4 hPa 0,0 l/m 6,8 km/h (2 Bft) S-SO 157 0,9 C 7,8 C
04.03.2013 17:06 8,5 C 59 % 1021,4 hPa 0,0 l/m 5,0 km/h (1 Bft) S 180 1,0 C 8,1 C
04.03.2013 17:11 8,4 C 59 % 1021,4 hPa 0,0 l/m 0,0 km/h (0 Bft) S-SO 157 0,9 C 8,4 C
04.03.2013 17:16 8,2 C 59 % 1021,4 hPa 0,0 l/m 3,6 km/h (1 Bft) S-SO 157 0,7 C 8,2 C
04.03.2013 17:21 7,9 C 60 % 1021,4 hPa 0,0 l/m 4,0 km/h (1 Bft) S-SO 157 0,6 C 7,9 C
04.03.2013 17:26 7,8 C 60 % 1021,4 hPa 0,0 l/m 0,0 km/h (0 Bft) SO 135 0,5 C 7,8 C
04.03.2013 17:31 7,5 C 60 % 1021,4 hPa 0,0 l/m 1,1 km/h (1 Bft) S-SO 157 0,2 C 7,5 C
04.03.2013 17:36 7,3 C 60 % 1021,4 hPa 0,0 l/m 3,2 km/h (1 Bft) S-SO 157 0,1 C 7,3 C
04.03.2013 17:41 7,1 C 61 % 1021,4 hPa 0,0 l/m 4,0 km/h (1 Bft) S 180 0,1 C 7,1 C
04.03.2013 17:46 6,9 C 62 % 1021,4 hPa 0,0 l/m 3,6 km/h (1 Bft) S-SO 157 0,1 C 6,9 C
04.03.2013 17:51 6,8 C 63 % 1021,3 hPa 0,0 l/m 1,1 km/h (1 Bft) S-SO 157 0,3 C 6,8 C
04.03.2013 17:56 6,6 C 63 % 1021,3 hPa 0,0 l/m 5,4 km/h (1 Bft) SO 135 0,1 C 5,8 C
04.03.2013 18:01 6,4 C 64 % 1021,3 hPa 0,0 l/m 4,3 km/h (1 Bft) SO 135 0,1 C 6,4 C
04.03.2013 18:06 6,1 C 64 % 1021,4 hPa 0,0 l/m 4,3 km/h (1 Bft) SO 135 -0,2 C 6,1 C
04.03.2013 18:11 5,9 C 65 % 1021,3 hPa 0,0 l/m 1,8 km/h (1 Bft) SO 135 -0,2 C 5,9 C
04.03.2013 18:16 5,8 C 65 % 1021,4 hPa 0,0 l/m 2,9 km/h (1 Bft) SO 135 -0,3 C 5,8 C
04.03.2013 18:21 5,6 C 66 % 1021,4 hPa 0,0 l/m 3,2 km/h (1 Bft) S-SO 157 -0,2 C 5,6 C
04.03.2013 18:26 5,4 C 66 % 1021,4 hPa 0,0 l/m 5,4 km/h (1 Bft) S-SO 157 -0,4 C 4,4 C
04.03.2013 18:31 5,3 C 66 % 1021,4 hPa 0,0 l/m 5,8 km/h (2 Bft) SO 135 -0,5 C 4,1 C
04.03.2013 18:36 5,2 C 67 % 1021,3 hPa 0,0 l/m 4,7 km/h (1 Bft) S-SO 157 -0,4 C 4,4 C
04.03.2013 18:41 5,1 C 67 % 1021,5 hPa 0,0 l/m 6,1 km/h (2 Bft) S-SO 157 -0,5 C 3,8 C
04.03.2013 18:46 5,0 C 67 % 1021,5 hPa 0,0 l/m 2,2 km/h (1 Bft) S-SO 157 -0,6 C 5,0 C
04.03.2013 18:51 4,8 C 68 % 1021,4 hPa 0,0 l/m 0,0 km/h (0 Bft) SO 135 -0,6 C 4,8 C
04.03.2013 18:56 4,5 C 68 % 1021,4 hPa 0,0 l/m 1,8 km/h (1 Bft) SO 135 -0,9 C 4,5 C
04.03.2013 19:01 4,4 C 69 % 1021,4 hPa 0,0 l/m 2,5 km/h (1 Bft) SO 135 -0,8 C 4,4 C
04.03.2013 19:06 4,3 C 69 % 1021,4 hPa 0,0 l/m 4,0 km/h (1 Bft) S-SO 157 -0,9 C 4,3 C
04.03.2013 19:11 4,2 C 69 % 1021,2 hPa 0,0 l/m 5,4 km/h (1 Bft) S-SO 157 -1,0 C 3,0 C
04.03.2013 19:16 4,1 C 70 % 1021,2 hPa 0,0 l/m 3,6 km/h (1 Bft) SO 135 -0,9 C 4,1 C
04.03.2013 19:21 4,1 C 69 % 1021,3 hPa 0,0 l/m 3,6 km/h (1 Bft) S-SO 157 -1,1 C 4,1 C
04.03.2013 19:26 4,1 C 69 % 1021,4 hPa 0,0 l/m 2,9 km/h (1 Bft) SO 135 -1,1 C 4,1 C
04.03.2013 19:31 3,9 C 69 % 1021,4 hPa 0,0 l/m 5,0 km/h (1 Bft) SO 135 -1,3 C 2,8 C
04.03.2013 19:36 3,9 C 70 % 1021,4 hPa 0,0 l/m 7,2 km/h (2 Bft) S-SO 157 -1,1 C 2,1 C
04.03.2013 19:41 3,8 C 70 % 1021,2 hPa 0,0 l/m 6,1 km/h (2 Bft) SO 135 -1,2 C 2,3 C
04.03.2013 19:46 3,6 C 71 % 1021,1 hPa 0,0 l/m 1,4 km/h (1 Bft) SO 135 -1,2 C 3,6 C
04.03.2013 19:51 3,5 C 71 % 1021,0 hPa 0,0 l/m 3,2 km/h (1 Bft) S-SO 157 -1,3 C 3,5 C
04.03.2013 19:56 3,4 C 71 % 1021,0 hPa 0,0 l/m 6,1 km/h (2 Bft) SO 135 -1,3 C 1,8 C
04.03.2013 20:01 3,4 C 71 % 1021,0 hPa 0,0 l/m 3,6 km/h (1 Bft) SO 135 -1,3 C 3,4 C
04.03.2013 20:06 3,3 C 71 % 1020,9 hPa 0,0 l/m 0,0 km/h (0 Bft) O-SO 112 -1,4 C 3,3 C
04.03.2013 20:11 3,2 C 71 % 1021,1 hPa 0,0 l/m 5,0 km/h (1 Bft) SO 135 -1,5 C 2,0 C
04.03.2013 20:16 3,1 C 72 % 1021,1 hPa 0,0 l/m 3,6 km/h (1 Bft) SO 135 -1,4 C 3,1 C
04.03.2013 20:21 2,9 C 72 % 1021,1 hPa 0,0 l/m 4,0 km/h (1 Bft) S-SO 157 -1,6 C 2,9 C
04.03.2013 20:26 2,8 C 73 % 1021,1 hPa 0,0 l/m 4,3 km/h (1 Bft) SO 135 -1,5 C 2,8 C
04.03.2013 20:31 2,7 C 73 % 1021,1 hPa 0,0 l/m 3,2 km/h (1 Bft) S-SO 157 -1,6 C 2,7 C
04.03.2013 20:36 2,6 C 74 % 1021,1 hPa 0,0 l/m 4,0 km/h (1 Bft) SO 135 -1,6 C 2,6 C
04.03.2013 20:41 2,6 C 74 % 1021,0 hPa 0,0 l/m 1,8 km/h (1 Bft) SO 135 -1,6 C 2,6 C
04.03.2013 20:46 2,5 C 74 % 1020,9 hPa 0,0 l/m 4,3 km/h (1 Bft) SO 135 -1,7 C 2,5 C
04.03.2013 20:51 2,4 C 74 % 1021,0 hPa 0,0 l/m 4,3 km/h (1 Bft) SO 135 -1,7 C 2,4 C
04.03.2013 20:56 2,3 C 74 % 1021,0 hPa 0,0 l/m 1,4 km/h (1 Bft) SO 135 -1,8 C 2,3 C
04.03.2013 21:01 2,2 C 74 % 1021,0 hPa 0,0 l/m 1,8 km/h (1 Bft) S-SO 157 -1,9 C 2,2 C
04.03.2013 21:06 2,1 C 74 % 1021,0 hPa 0,0 l/m 4,0 km/h (1 Bft) SO 135 -2,0 C 2,1 C
04.03.2013 21:11 1,9 C 75 % 1021,1 hPa 0,0 l/m 3,2 km/h (1 Bft) S-SO 157 -2,1 C 1,9 C
04.03.2013 21:16 1,9 C 75 % 1020,9 hPa 0,0 l/m 3,6 km/h (1 Bft) S-SO 157 -2,1 C 1,9 C
04.03.2013 21:21 1,8 C 75 % 1020,8 hPa 0,0 l/m 3,2 km/h (1 Bft) S-SO 157 -2,1 C 1,8 C
04.03.2013 21:26 1,9 C 76 % 1020,9 hPa 0,0 l/m 5,0 km/h (1 Bft) S-SO 157 -1,9 C 0,6 C
04.03.2013 21:31 1,9 C 76 % 1020,9 hPa 0,0 l/m 8,3 km/h (2 Bft) S-SO 157 -1,9 C -0,6 C
04.03.2013 21:36 2,1 C 76 % 1020,9 hPa 0,0 l/m 4,0 km/h (1 Bft) SO 135 -1,7 C 2,1 C
04.03.2013 21:41 2,3 C 75 % 1020,8 hPa 0,0 l/m 6,5 km/h (2 Bft) SO 135 -1,7 C 0,4 C
04.03.2013 21:46 2,3 C 75 % 1020,7 hPa 0,0 l/m 4,3 km/h (1 Bft) SO 135 -1,7 C 2,3 C
04.03.2013 21:51 2,3 C 75 % 1020,7 hPa 0,0 l/m 10,8 km/h (2 Bft) S-SO 157 -1,7 C -0,8 C
04.03.2013 21:56 2,3 C 75 % 1020,7 hPa 0,0 l/m 6,1 km/h (2 Bft) S-SO 157 -1,7 C 0,6 C
04.03.2013 22:01 2,3 C 75 % 1020,7 hPa 0,0 l/m 5,4 km/h (1 Bft) SO 135 -1,7 C 0,9 C
04.03.2013 22:06 2,5 C 74 % 1020,6 hPa 0,0 l/m 6,5 km/h (2 Bft) SO 135 -1,7 C 0,7 C
04.03.2013 22:11 2,7 C 74 % 1020,6 hPa 0,0 l/m 6,5 km/h (2 Bft) SO 135 -1,5 C 0,9 C
04.03.2013 22:16 2,8 C 73 % 1020,7 hPa 0,0 l/m 11,9 km/h (2 Bft) SO 135 -1,5 C -0,4 C
04.03.2013 22:21 2,8 C 73 % 1020,7 hPa 0,0 l/m 5,8 km/h (2 Bft) S-SO 157 -1,5 C 1,3 C
04.03.2013 22:26 2,8 C 73 % 1020,6 hPa 0,0 l/m 8,3 km/h (2 Bft) SO 135 -1,5 C 0,5 C
04.03.2013 22:31 2,8 C 73 % 1020,5 hPa 0,0 l/m 9,7 km/h (2 Bft) SO 135 -1,5 C 0,1 C
04.03.2013 22:36 2,8 C 73 % 1020,5 hPa 0,0 l/m 7,6 km/h (2 Bft) SO 135 -1,5 C 0,7 C
04.03.2013 22:41 2,7 C 72 % 1020,5 hPa 0,0 l/m 5,0 km/h (1 Bft) SO 135 -1,8 C 1,5 C
04.03.2013 22:46 2,7 C 72 % 1020,4 hPa 0,0 l/m 5,0 km/h (1 Bft) S-SO 157 -1,8 C 1,5 C
04.03.2013 22:51 2,6 C 72 % 1020,5 hPa 0,0 l/m 4,7 km/h (1 Bft) SO 135 -1,9 C 1,5 C
04.03.2013 22:56 2,4 C 72 % 1020,3 hPa 0,0 l/m 4,0 km/h (1 Bft) SO 135 -2,1 C 2,4 C
04.03.2013 23:01 2,3 C 73 % 1020,2 hPa 0,0 l/m 6,1 km/h (2 Bft) SO 135 -2,0 C 0,6 C
04.03.2013 23:06 2,2 C 73 % 1020,4 hPa 0,0 l/m 3,6 km/h (1 Bft) SO 135 -2,1 C 2,2 C
04.03.2013 23:11 2,2 C 73 % 1020,3 hPa 0,0 l/m 5,0 km/h (1 Bft) SO 135 -2,1 C 0,9 C
04.03.2013 23:16 2,1 C 74 % 1020,1 hPa 0,0 l/m 4,0 km/h (1 Bft) S-SO 157 -2,0 C 2,1 C
04.03.2013 23:21 1,9 C 74 % 1020,1 hPa 0,0 l/m 1,1 km/h (1 Bft) S-SO 157 -2,2 C 1,9 C
04.03.2013 23:26 1,8 C 74 % 1020,0 hPa 0,0 l/m 4,3 km/h (1 Bft) SO 135 -2,3 C 1,8 C
04.03.2013 23:31 1,6 C 74 % 1020,0 hPa 0,0 l/m 2,5 km/h (1 Bft) S-SO 157 -2,5 C 1,6 C
04.03.2013 23:36 1,4 C 75 % 1019,8 hPa 0,0 l/m 0,0 km/h (0 Bft) SO 135 -2,5 C 1,4 C
04.03.2013 23:41 1,3 C 75 % 1020,0 hPa 0,0 l/m 2,5 km/h (1 Bft) O-SO 112 -2,6 C 1,3 C
04.03.2013 23:46 1,3 C 76 % 1019,8 hPa 0,0 l/m 2,5 km/h (1 Bft) O-SO 112 -2,5 C 1,3 C
04.03.2013 23:51 1,1 C 76 % 1019,7 hPa 0,0 l/m 2,2 km/h (1 Bft) SO 135 -2,6 C 1,1 C
04.03.2013 23:56 1,0 C 77 % 1019,6 hPa 0,0 l/m 4,3 km/h (1 Bft) O-SO 112 -2,6 C 1,0 C
_ Min-Zeit 03:36 16:01 23:56 - 00:01 - - 03:36 03:36
Minimum _ -3,1 C 53 % 1019,6 hPa - 0,0 km/h (0 Bft) - - -4,9 C -3,1 C
_ Max-Zeit 15:21 05:51 08:56 00:01 12:06 - - 14:46 15:21
Maximum _ 10,4 C 90 % 1024,9 hPa 0,0 l/m 16,2 km/h
S-SW (3 Bft)
- - 2,5 C 10,4 C
Durchschnitt _ 2,8 C 77 % 1023,0 hPa #0,0 l/m 3,2 km/h (1 Bft) S-SO - -1,1 C 2,4 C
(c) by David Heller